sensor_id;sensor_type;location;lat;lon;timestamp;pressure;altitude;pressure_sealevel;temperature;humidity
41467;BME280;27205;53.690;19.948;2023-02-10T00:00:54;101021.17;;;-1.05;72.48
41467;BME280;27205;53.690;19.948;2023-02-10T00:06:00;101022.57;;;-0.99;72.23
41467;BME280;27205;53.690;19.948;2023-02-10T00:11:06;101014.70;;;-0.94;72.25
41467;BME280;27205;53.690;19.948;2023-02-10T00:16:14;101006.73;;;-0.88;72.02
41467;BME280;27205;53.690;19.948;2023-02-10T00:21:17;100993.08;;;-0.87;72.01
41467;BME280;27205;53.690;19.948;2023-02-10T00:26:19;100992.16;;;-0.91;71.89
41467;BME280;27205;53.690;19.948;2023-02-10T00:31:22;100986.08;;;-0.95;71.93
41467;BME280;27205;53.690;19.948;2023-02-10T00:36:24;100990.95;;;-1.02;72.02
41467;BME280;27205;53.690;19.948;2023-02-10T00:41:26;100995.05;;;-1.00;72.15
41467;BME280;27205;53.690;19.948;2023-02-10T00:46:29;100991.28;;;-0.99;71.90
41467;BME280;27205;53.690;19.948;2023-02-10T00:51:31;100992.92;;;-0.97;71.91
41467;BME280;27205;53.690;19.948;2023-02-10T00:56:34;100991.72;;;-0.96;71.85
41467;BME280;27205;53.690;19.948;2023-02-10T01:01:36;100998.00;;;-0.93;71.61
41467;BME280;27205;53.690;19.948;2023-02-10T01:06:38;100981.48;;;-0.87;71.63
41467;BME280;27205;53.690;19.948;2023-02-10T01:11:40;100974.95;;;-0.84;71.54
41467;BME280;27205;53.690;19.948;2023-02-10T01:16:43;100995.15;;;-0.81;71.31
41467;BME280;27205;53.690;19.948;2023-02-10T01:21:45;101008.01;;;-0.66;71.22
41467;BME280;27205;53.690;19.948;2023-02-10T01:26:47;101004.38;;;-0.51;71.14
41467;BME280;27205;53.690;19.948;2023-02-10T01:31:50;101001.98;;;-0.36;70.93
41467;BME280;27205;53.690;19.948;2023-02-10T01:36:53;101003.24;;;-0.28;70.67
41467;BME280;27205;53.690;19.948;2023-02-10T01:41:55;100992.27;;;-0.19;70.39
41467;BME280;27205;53.690;19.948;2023-02-10T01:46:57;100991.34;;;-0.11;70.33
41467;BME280;27205;53.690;19.948;2023-02-10T01:52:02;100983.10;;;-0.06;70.13
41467;BME280;27205;53.690;19.948;2023-02-10T01:57:05;100977.11;;;0.00;70.16
41467;BME280;27205;53.690;19.948;2023-02-10T02:02:08;100979.73;;;0.05;69.76
41467;BME280;27205;53.690;19.948;2023-02-10T02:07:11;100975.65;;;0.08;69.68
41467;BME280;27205;53.690;19.948;2023-02-10T02:12:29;100993.06;;;0.10;69.87
41467;BME280;27205;53.690;19.948;2023-02-10T02:17:48;101014.60;;;0.11;69.75
41467;BME280;27205;53.690;19.948;2023-02-10T02:28:33;101016.05;;;0.09;69.83
41467;BME280;27205;53.690;19.948;2023-02-10T02:34:06;101018.50;;;0.05;69.93
41467;BME280;27205;53.690;19.948;2023-02-10T02:39:11;101028.84;;;0.03;70.12
41467;BME280;27205;53.690;19.948;2023-02-10T02:44:13;101025.65;;;0.01;69.96
41467;BME280;27205;53.690;19.948;2023-02-10T02:49:38;101016.20;;;-0.08;70.08
41467;BME280;27205;53.690;19.948;2023-02-10T02:54:49;101009.08;;;-0.09;70.37
41467;BME280;27205;53.690;19.948;2023-02-10T03:00:10;101007.59;;;-0.10;70.03
41467;BME280;27205;53.690;19.948;2023-02-10T03:05:19;101008.58;;;-0.04;70.11
41467;BME280;27205;53.690;19.948;2023-02-10T03:10:23;101004.91;;;-0.07;70.07
41467;BME280;27205;53.690;19.948;2023-02-10T03:15:25;101004.84;;;-0.07;70.32
41467;BME280;27205;53.690;19.948;2023-02-10T03:20:27;101011.44;;;-0.04;70.47
41467;BME280;27205;53.690;19.948;2023-02-10T03:25:29;101019.17;;;-0.04;70.10
41467;BME280;27205;53.690;19.948;2023-02-10T03:30:32;101027.34;;;0.00;70.31
41467;BME280;27205;53.690;19.948;2023-02-10T03:35:36;101017.66;;;-0.02;70.45
41467;BME280;27205;53.690;19.948;2023-02-10T03:40:39;100997.44;;;-0.03;70.41
41467;BME280;27205;53.690;19.948;2023-02-10T03:45:42;100980.37;;;-0.01;70.77
41467;BME280;27205;53.690;19.948;2023-02-10T03:50:44;100970.52;;;0.05;70.53
41467;BME280;27205;53.690;19.948;2023-02-10T03:55:46;100955.75;;;0.07;71.05
41467;BME280;27205;53.690;19.948;2023-02-10T04:00:49;100950.34;;;0.08;71.06
41467;BME280;27205;53.690;19.948;2023-02-10T04:05:52;100950.66;;;0.08;71.20
41467;BME280;27205;53.690;19.948;2023-02-10T04:10:54;100956.02;;;0.11;71.45
41467;BME280;27205;53.690;19.948;2023-02-10T04:16:04;100957.13;;;0.14;71.53
41467;BME280;27205;53.690;19.948;2023-02-10T04:21:09;100952.73;;;0.15;71.77
41467;BME280;27205;53.690;19.948;2023-02-10T04:26:12;100950.40;;;0.13;72.19
41467;BME280;27205;53.690;19.948;2023-02-10T04:31:14;100949.95;;;0.16;72.10
41467;BME280;27205;53.690;19.948;2023-02-10T04:36:16;100966.84;;;0.20;72.11
41467;BME280;27205;53.690;19.948;2023-02-10T04:41:19;100965.31;;;0.21;72.45
41467;BME280;27205;53.690;19.948;2023-02-10T04:46:21;100957.27;;;0.24;72.36
41467;BME280;27205;53.690;19.948;2023-02-10T04:51:23;100953.64;;;0.23;72.74
41467;BME280;27205;53.690;19.948;2023-02-10T04:56:25;100965.07;;;0.20;72.55
41467;BME280;27205;53.690;19.948;2023-02-10T05:01:28;100975.01;;;0.15;72.92
41467;BME280;27205;53.690;19.948;2023-02-10T05:06:30;100975.69;;;0.13;72.81
41467;BME280;27205;53.690;19.948;2023-02-10T05:11:32;100988.38;;;0.13;73.24
41467;BME280;27205;53.690;19.948;2023-02-10T05:16:34;100999.00;;;0.14;73.41
41467;BME280;27205;53.690;19.948;2023-02-10T05:21:36;101006.86;;;0.11;73.68
41467;BME280;27205;53.690;19.948;2023-02-10T05:26:39;100997.44;;;0.14;74.03
41467;BME280;27205;53.690;19.948;2023-02-10T05:31:41;100987.52;;;0.21;73.91
41467;BME280;27205;53.690;19.948;2023-02-10T05:36:43;100979.60;;;0.28;73.81
41467;BME280;27205;53.690;19.948;2023-02-10T05:41:45;100977.00;;;0.31;74.02
41467;BME280;27205;53.690;19.948;2023-02-10T05:46:48;100983.59;;;0.33;74.28
41467;BME280;27205;53.690;19.948;2023-02-10T05:51:51;100991.98;;;0.27;74.82
41467;BME280;27205;53.690;19.948;2023-02-10T05:56:54;100987.19;;;0.28;75.00
41467;BME280;27205;53.690;19.948;2023-02-10T06:01:56;100989.19;;;0.36;74.85
41467;BME280;27205;53.690;19.948;2023-02-10T06:06:58;100978.90;;;0.39;75.16
41467;BME280;27205;53.690;19.948;2023-02-10T06:12:01;100977.39;;;0.44;75.39
41467;BME280;27205;53.690;19.948;2023-02-10T06:17:05;100979.77;;;0.51;75.46
41467;BME280;27205;53.690;19.948;2023-02-10T06:22:10;100970.34;;;0.56;75.68
41467;BME280;27205;53.690;19.948;2023-02-10T06:27:13;100969.52;;;0.61;75.78
41467;BME280;27205;53.690;19.948;2023-02-10T06:32:16;100969.91;;;0.61;76.22
41467;BME280;27205;53.690;19.948;2023-02-10T06:37:19;100978.09;;;0.70;76.29
41467;BME280;27205;53.690;19.948;2023-02-10T06:42:21;100987.23;;;0.82;76.50
41467;BME280;27205;53.690;19.948;2023-02-10T06:47:24;100986.74;;;0.91;76.45
41467;BME280;27205;53.690;19.948;2023-02-10T06:52:26;100984.39;;;0.99;76.59
41467;BME280;27205;53.690;19.948;2023-02-10T06:57:28;100981.62;;;1.05;76.70
41467;BME280;27205;53.690;19.948;2023-02-10T07:02:30;100983.04;;;1.12;76.85
41467;BME280;27205;53.690;19.948;2023-02-10T07:07:36;100987.55;;;1.17;76.68
41467;BME280;27205;53.690;19.948;2023-02-10T07:12:38;100992.61;;;1.22;76.73
41467;BME280;27205;53.690;19.948;2023-02-10T07:17:40;101008.84;;;1.26;76.70
41467;BME280;27205;53.690;19.948;2023-02-10T07:22:43;101004.67;;;1.31;76.83
41467;BME280;27205;53.690;19.948;2023-02-10T07:27:45;101000.05;;;1.39;76.75
41467;BME280;27205;53.690;19.948;2023-02-10T07:32:47;100995.90;;;1.51;76.62
41467;BME280;27205;53.690;19.948;2023-02-10T07:37:49;100996.16;;;1.62;76.72
41467;BME280;27205;53.690;19.948;2023-02-10T07:42:51;101006.20;;;1.72;76.76
41467;BME280;27205;53.690;19.948;2023-02-10T07:47:54;100999.92;;;1.76;76.78
41467;BME280;27205;53.690;19.948;2023-02-10T07:52:56;100986.19;;;1.80;76.88
41467;BME280;27205;53.690;19.948;2023-02-10T07:57:58;100999.71;;;1.90;76.94
41467;BME280;27205;53.690;19.948;2023-02-10T08:03:01;101003.67;;;1.93;77.14
41467;BME280;27205;53.690;19.948;2023-02-10T08:08:03;101023.55;;;1.99;77.30
41467;BME280;27205;53.690;19.948;2023-02-10T08:13:06;101017.67;;;2.14;77.38
41467;BME280;27205;53.690;19.948;2023-02-10T08:18:08;101019.86;;;2.28;77.46
41467;BME280;27205;53.690;19.948;2023-02-10T08:23:15;101015.42;;;2.37;77.51
41467;BME280;27205;53.690;19.948;2023-02-10T08:28:18;101020.48;;;2.48;77.63
41467;BME280;27205;53.690;19.948;2023-02-10T08:33:21;101028.77;;;2.61;77.49
41467;BME280;27205;53.690;19.948;2023-02-10T08:38:23;101037.08;;;2.76;77.56
41467;BME280;27205;53.690;19.948;2023-02-10T08:43:25;101033.71;;;2.90;77.43
41467;BME280;27205;53.690;19.948;2023-02-10T08:48:28;101019.16;;;2.92;77.48
41467;BME280;27205;53.690;19.948;2023-02-10T08:53:32;101021.34;;;2.91;77.38
41467;BME280;27205;53.690;19.948;2023-02-10T08:58:35;101029.91;;;2.84;77.47
41467;BME280;27205;53.690;19.948;2023-02-10T09:03:38;101025.25;;;2.82;77.61
41467;BME280;27205;53.690;19.948;2023-02-10T09:08:41;101033.55;;;2.93;77.55
41467;BME280;27205;53.690;19.948;2023-02-10T09:13:44;101053.73;;;3.07;77.58
41467;BME280;27205;53.690;19.948;2023-02-10T09:18:46;101045.60;;;3.20;77.49
41467;BME280;27205;53.690;19.948;2023-02-10T09:23:48;101053.06;;;3.45;77.44
41467;BME280;27205;53.690;19.948;2023-02-10T09:28:51;101058.56;;;3.50;77.43
41467;BME280;27205;53.690;19.948;2023-02-10T09:33:54;101063.92;;;3.53;77.51
41467;BME280;27205;53.690;19.948;2023-02-10T09:38:56;101078.70;;;3.76;77.59
41467;BME280;27205;53.690;19.948;2023-02-10T09:49:39;101063.50;;;4.29;77.15
41467;BME280;27205;53.690;19.948;2023-02-10T09:54:46;101074.71;;;4.41;77.09
41467;BME280;27205;53.690;19.948;2023-02-10T09:59:51;101064.73;;;4.69;76.84
41467;BME280;27205;53.690;19.948;2023-02-10T10:04:58;101066.10;;;4.72;76.82
41467;BME280;27205;53.690;19.948;2023-02-10T10:10:03;101090.86;;;4.86;76.69
41467;BME280;27205;53.690;19.948;2023-02-10T10:15:18;101100.90;;;4.97;76.31
41467;BME280;27205;53.690;19.948;2023-02-10T10:21:06;101094.35;;;5.04;76.17
41467;BME280;27205;53.690;19.948;2023-02-10T10:26:15;101110.42;;;5.13;75.81
41467;BME280;27205;53.690;19.948;2023-02-10T10:31:39;101104.05;;;5.18;75.55
41467;BME280;27205;53.690;19.948;2023-02-10T10:36:46;101111.34;;;5.51;75.60
41467;BME280;27205;53.690;19.948;2023-02-10T10:41:50;101121.20;;;5.79;75.01
41467;BME280;27205;53.690;19.948;2023-02-10T10:47:06;101119.95;;;5.85;74.90
41467;BME280;27205;53.690;19.948;2023-02-10T10:52:28;101123.52;;;5.72;74.34
41467;BME280;27205;53.690;19.948;2023-02-10T10:57:34;101129.63;;;5.92;74.36
41467;BME280;27205;53.690;19.948;2023-02-10T11:02:36;101130.27;;;5.90;74.11
41467;BME280;27205;53.690;19.948;2023-02-10T11:07:39;101130.36;;;6.07;74.25
41467;BME280;27205;53.690;19.948;2023-02-10T11:12:45;101129.81;;;5.95;73.84
41467;BME280;27205;53.690;19.948;2023-02-10T11:17:48;101131.49;;;5.92;74.15
41467;BME280;27205;53.690;19.948;2023-02-10T11:23:02;101137.13;;;6.16;73.85
41467;BME280;27205;53.690;19.948;2023-02-10T11:28:16;101139.69;;;5.93;73.39
41467;BME280;27205;53.690;19.948;2023-02-10T11:33:25;101144.75;;;5.73;73.60
41467;BME280;27205;53.690;19.948;2023-02-10T11:38:28;101146.86;;;5.28;73.75
41467;BME280;27205;53.690;19.948;2023-02-10T11:43:36;101147.30;;;4.98;74.49
41467;BME280;27205;53.690;19.948;2023-02-10T11:48:39;101143.85;;;4.71;74.82
41467;BME280;27205;53.690;19.948;2023-02-10T11:53:43;101145.00;;;4.54;75.08
41467;BME280;27205;53.690;19.948;2023-02-10T12:15:03;101155.09;;;4.05;77.23
41467;BME280;27205;53.690;19.948;2023-02-10T12:20:29;101153.48;;;3.97;77.31
41467;BME280;27205;53.690;19.948;2023-02-10T12:52:49;101156.14;;;3.55;79.94
41467;BME280;27205;53.690;19.948;2023-02-10T12:57:58;101155.49;;;3.60;80.34
41467;BME280;27205;53.690;19.948;2023-02-10T13:03:13;101167.83;;;3.70;80.52
41467;BME280;27205;53.690;19.948;2023-02-10T13:08:25;101173.95;;;3.82;80.68
41467;BME280;27205;53.690;19.948;2023-02-10T13:13:30;101179.61;;;3.92;81.04
41467;BME280;27205;53.690;19.948;2023-02-10T13:24:20;101174.33;;;4.22;80.96
41467;BME280;27205;53.690;19.948;2023-02-10T13:34:58;101191.52;;;4.10;80.99
41467;BME280;27205;53.690;19.948;2023-02-10T13:40:04;101185.27;;;4.16;81.08
41467;BME280;27205;53.690;19.948;2023-02-10T13:45:22;101182.23;;;4.32;81.11
41467;BME280;27205;53.690;19.948;2023-02-10T13:50:47;101184.75;;;4.39;80.91
41467;BME280;27205;53.690;19.948;2023-02-10T13:55:50;101184.51;;;4.41;80.92
41467;BME280;27205;53.690;19.948;2023-02-10T14:01:40;101178.02;;;4.45;81.05
41467;BME280;27205;53.690;19.948;2023-02-10T14:06:44;101171.52;;;4.50;80.77
41467;BME280;27205;53.690;19.948;2023-02-10T14:11:50;101181.73;;;4.52;80.75
41467;BME280;27205;53.690;19.948;2023-02-10T14:27:26;101190.37;;;4.24;80.75
41467;BME280;27205;53.690;19.948;2023-02-10T14:32:30;101202.40;;;4.15;80.92
41467;BME280;27205;53.690;19.948;2023-02-10T14:37:34;101204.85;;;4.07;81.00
41467;BME280;27205;53.690;19.948;2023-02-10T14:42:41;101199.18;;;4.01;81.14
41467;BME280;27205;53.690;19.948;2023-02-10T14:47:44;101203.95;;;4.00;81.23
41467;BME280;27205;53.690;19.948;2023-02-10T14:52:49;101201.70;;;4.15;81.21
41467;BME280;27205;53.690;19.948;2023-02-10T14:58:05;101207.52;;;4.37;81.14
41467;BME280;27205;53.690;19.948;2023-02-10T15:03:11;101207.07;;;4.35;81.11
41467;BME280;27205;53.690;19.948;2023-02-10T15:08:18;101218.02;;;4.24;80.99
41467;BME280;27205;53.690;19.948;2023-02-10T15:13:27;101222.61;;;4.09;81.07
41467;BME280;27205;53.690;19.948;2023-02-10T15:18:34;101226.86;;;3.90;81.20
41467;BME280;27205;53.690;19.948;2023-02-10T15:23:46;101231.83;;;3.69;81.43
41467;BME280;27205;53.690;19.948;2023-02-10T15:34:21;101225.72;;;3.38;82.00
41467;BME280;27205;53.690;19.948;2023-02-10T15:39:34;101224.49;;;3.31;82.20
41467;BME280;27205;53.690;19.948;2023-02-10T15:44:39;101212.36;;;3.27;82.46
41467;BME280;27205;53.690;19.948;2023-02-10T15:49:44;101210.95;;;3.24;82.55
41467;BME280;27205;53.690;19.948;2023-02-10T15:54:46;101207.15;;;3.13;82.68
41467;BME280;27205;53.690;19.948;2023-02-10T15:59:51;101203.02;;;2.99;83.04
41467;BME280;27205;53.690;19.948;2023-02-10T16:04:55;101208.77;;;2.87;83.21
41467;BME280;27205;53.690;19.948;2023-02-10T16:09:58;101224.55;;;2.77;83.58
41467;BME280;27205;53.690;19.948;2023-02-10T16:15:03;101229.58;;;2.70;83.80
41467;BME280;27205;53.690;19.948;2023-02-10T16:20:06;101236.94;;;2.62;84.01
41467;BME280;27205;53.690;19.948;2023-02-10T16:25:13;101234.97;;;2.52;83.97
41467;BME280;27205;53.690;19.948;2023-02-10T16:30:18;101224.52;;;2.40;84.28
41467;BME280;27205;53.690;19.948;2023-02-10T16:35:22;101240.98;;;2.34;84.62
41467;BME280;27205;53.690;19.948;2023-02-10T16:40:30;101239.27;;;2.36;85.01
41467;BME280;27205;53.690;19.948;2023-02-10T16:45:33;101236.79;;;2.37;85.27
41467;BME280;27205;53.690;19.948;2023-02-10T16:50:40;101253.52;;;2.47;85.29
41467;BME280;27205;53.690;19.948;2023-02-10T16:55:43;101263.80;;;2.52;85.67
41467;BME280;27205;53.690;19.948;2023-02-10T17:00:45;101260.63;;;2.58;85.67
41467;BME280;27205;53.690;19.948;2023-02-10T17:05:48;101252.48;;;2.58;86.07
41467;BME280;27205;53.690;19.948;2023-02-10T17:10:51;101246.58;;;2.61;86.17
41467;BME280;27205;53.690;19.948;2023-02-10T17:15:53;101242.45;;;2.62;86.14
41467;BME280;27205;53.690;19.948;2023-02-10T17:20:55;101226.52;;;2.64;86.18
41467;BME280;27205;53.690;19.948;2023-02-10T17:25:58;101224.98;;;2.65;86.44
41467;BME280;27205;53.690;19.948;2023-02-10T17:31:00;101221.72;;;2.68;86.53
41467;BME280;27205;53.690;19.948;2023-02-10T17:36:02;101223.28;;;2.69;86.80
41467;BME280;27205;53.690;19.948;2023-02-10T17:41:08;101224.76;;;2.69;86.72
41467;BME280;27205;53.690;19.948;2023-02-10T17:46:14;101223.35;;;2.66;86.78
41467;BME280;27205;53.690;19.948;2023-02-10T17:51:22;101240.90;;;2.61;87.12
41467;BME280;27205;53.690;19.948;2023-02-10T17:56:24;101243.67;;;2.56;87.18
41467;BME280;27205;53.690;19.948;2023-02-10T18:01:28;101240.88;;;2.53;87.41
41467;BME280;27205;53.690;19.948;2023-02-10T18:06:33;101227.98;;;2.56;87.53
41467;BME280;27205;53.690;19.948;2023-02-10T18:11:35;101218.81;;;2.54;87.49
41467;BME280;27205;53.690;19.948;2023-02-10T18:16:37;101213.85;;;2.53;87.60
41467;BME280;27205;53.690;19.948;2023-02-10T18:21:40;101218.73;;;2.53;87.75
41467;BME280;27205;53.690;19.948;2023-02-10T18:26:42;101206.06;;;2.57;87.86
41467;BME280;27205;53.690;19.948;2023-02-10T18:31:45;101205.87;;;2.63;87.91
41467;BME280;27205;53.690;19.948;2023-02-10T18:36:47;101209.92;;;2.70;87.88
41467;BME280;27205;53.690;19.948;2023-02-10T18:41:49;101193.13;;;2.75;88.13
41467;BME280;27205;53.690;19.948;2023-02-10T18:46:51;101190.95;;;2.79;87.88
41467;BME280;27205;53.690;19.948;2023-02-10T18:51:53;101194.70;;;2.80;87.90
41467;BME280;27205;53.690;19.948;2023-02-10T18:56:56;101199.35;;;2.74;87.84
41467;BME280;27205;53.690;19.948;2023-02-10T19:01:59;101196.47;;;2.67;87.72
41467;BME280;27205;53.690;19.948;2023-02-10T19:07:01;101190.16;;;2.63;87.74
41467;BME280;27205;53.690;19.948;2023-02-10T19:12:04;101178.66;;;2.60;87.88
41467;BME280;27205;53.690;19.948;2023-02-10T19:29:03;101185.60;;;2.77;88.55
41467;BME280;27205;53.690;19.948;2023-02-10T19:34:07;101176.28;;;2.83;88.73
41467;BME280;27205;53.690;19.948;2023-02-10T19:39:15;101181.41;;;2.91;88.85
41467;BME280;27205;53.690;19.948;2023-02-10T19:44:20;101178.45;;;2.92;88.62
41467;BME280;27205;53.690;19.948;2023-02-10T19:49:24;101172.30;;;2.94;88.75
41467;BME280;27205;53.690;19.948;2023-02-10T19:54:28;101169.35;;;2.94;88.89
41467;BME280;27205;53.690;19.948;2023-02-10T19:59:32;101169.89;;;2.94;88.96
41467;BME280;27205;53.690;19.948;2023-02-10T20:04:36;101164.23;;;2.99;88.94
41467;BME280;27205;53.690;19.948;2023-02-10T20:09:39;101162.42;;;3.03;88.98
41467;BME280;27205;53.690;19.948;2023-02-10T20:14:43;101149.92;;;3.05;88.96
41467;BME280;27205;53.690;19.948;2023-02-10T20:19:46;101142.38;;;3.10;88.89
41467;BME280;27205;53.690;19.948;2023-02-10T20:24:50;101139.96;;;3.15;88.70
41467;BME280;27205;53.690;19.948;2023-02-10T20:29:54;101136.44;;;3.18;88.73
41467;BME280;27205;53.690;19.948;2023-02-10T20:34:57;101129.29;;;3.19;88.58
41467;BME280;27205;53.690;19.948;2023-02-10T20:40:01;101119.09;;;3.20;88.61
41467;BME280;27205;53.690;19.948;2023-02-10T20:45:05;101111.02;;;3.16;88.70
41467;BME280;27205;53.690;19.948;2023-02-10T20:50:09;101113.20;;;3.17;88.76
41467;BME280;27205;53.690;19.948;2023-02-10T20:55:14;101107.19;;;3.23;88.73
41467;BME280;27205;53.690;19.948;2023-02-10T21:00:17;101111.54;;;3.28;88.54
41467;BME280;27205;53.690;19.948;2023-02-10T21:05:21;101107.88;;;3.27;88.61
41467;BME280;27205;53.690;19.948;2023-02-10T21:10:24;101101.97;;;3.26;88.42
41467;BME280;27205;53.690;19.948;2023-02-10T21:15:28;101087.42;;;3.28;88.56
41467;BME280;27205;53.690;19.948;2023-02-10T21:20:32;101075.29;;;3.30;88.64
41467;BME280;27205;53.690;19.948;2023-02-10T21:25:36;101072.56;;;3.32;88.68
41467;BME280;27205;53.690;19.948;2023-02-10T21:30:41;101063.67;;;3.34;88.76
41467;BME280;27205;53.690;19.948;2023-02-10T21:35:46;101060.55;;;3.39;88.66
41467;BME280;27205;53.690;19.948;2023-02-10T21:41:00;101043.98;;;3.42;88.56
41467;BME280;27205;53.690;19.948;2023-02-10T21:46:06;101042.81;;;3.41;88.58
41467;BME280;27205;53.690;19.948;2023-02-10T21:51:11;101040.87;;;3.40;88.60
41467;BME280;27205;53.690;19.948;2023-02-10T21:56:15;101034.48;;;3.39;88.62
41467;BME280;27205;53.690;19.948;2023-02-10T22:01:19;101020.64;;;3.40;88.61
41467;BME280;27205;53.690;19.948;2023-02-10T22:06:22;101023.96;;;3.45;88.50
41467;BME280;27205;53.690;19.948;2023-02-10T22:11:28;101029.70;;;3.48;88.49
41467;BME280;27205;53.690;19.948;2023-02-10T22:16:31;101022.10;;;3.46;88.49
41467;BME280;27205;53.690;19.948;2023-02-10T22:21:35;101001.62;;;3.49;88.47
41467;BME280;27205;53.690;19.948;2023-02-10T22:26:39;100994.14;;;3.50;88.66
41467;BME280;27205;53.690;19.948;2023-02-10T22:31:43;100968.84;;;3.53;88.57
41467;BME280;27205;53.690;19.948;2023-02-10T22:36:53;100965.92;;;3.57;88.62
41467;BME280;27205;53.690;19.948;2023-02-10T22:41:57;100958.60;;;3.60;88.51
41467;BME280;27205;53.690;19.948;2023-02-10T22:47:01;100949.73;;;3.59;88.58
41467;BME280;27205;53.690;19.948;2023-02-10T22:52:04;100932.99;;;3.59;88.41
41467;BME280;27205;53.690;19.948;2023-02-10T22:57:08;100939.61;;;3.59;88.33
41467;BME280;27205;53.690;19.948;2023-02-10T23:02:11;100932.45;;;3.61;88.24
41467;BME280;27205;53.690;19.948;2023-02-10T23:07:15;100905.29;;;3.62;88.16
41467;BME280;27205;53.690;19.948;2023-02-10T23:12:20;100905.50;;;3.64;88.04
41467;BME280;27205;53.690;19.948;2023-02-10T23:17:23;100896.41;;;3.60;88.20
41467;BME280;27205;53.690;19.948;2023-02-10T23:22:27;100880.09;;;3.60;88.32
41467;BME280;27205;53.690;19.948;2023-02-10T23:27:31;100860.98;;;3.64;88.39
41467;BME280;27205;53.690;19.948;2023-02-10T23:32:35;100860.81;;;3.66;88.26
41467;BME280;27205;53.690;19.948;2023-02-10T23:37:38;100862.58;;;3.70;87.87
41467;BME280;27205;53.690;19.948;2023-02-10T23:42:42;100852.86;;;3.66;88.06
41467;BME280;27205;53.690;19.948;2023-02-10T23:47:45;100844.95;;;3.64;88.14
41467;BME280;27205;53.690;19.948;2023-02-10T23:52:49;100838.89;;;3.64;88.08
41467;BME280;27205;53.690;19.948;2023-02-10T23:57:52;100834.64;;;3.59;88.00
